Terminal Aerodrome Forecast
Issued by NWS

Home | Current Version | Previous Version | Text Only | Print | Product List | Glossary On
Versions: 1 2 3 4 5 6 7 8 9 10 11 12 13 14 15 16
418
FTUS44 KTSA 291740
TAFBVO
TAF
KBVO 291740Z 2918/3018 05011KT P6SM VCTS BKN015CB
     FM292200 08011KT P6SM -TSRA BKN015CB
      TEMPO 2922/3002 5SM TSRA SCT008 BKN012CB
     FM300200 10007KT 6SM -SHRA OVC007
     FM300700 14009KT P6SM BKN008 PROB30 3007/3012 6SM -SHRA OVC007
     FM301500 24007KT P6SM SCT025=

USA.gov is the U.S. government's official web portal to all federal, state and local government web resources and services.